Tiempo atmosférico en la estación meteorológica de Jabaloyas, Teruel (1430 m.)



Fecha
DESCASC
Temp. máxima en grados centígrados (hora)
DESCASC
Temp. mínima en grados centígrados (hora)
DESCASC
Temp. media en grados centígrados
DESCASC
Racha de viento máxima en m/sg (hora)
DESCASC
Velocidad máxima media en intervalos de 10 minutos(hora)
DESCASC
Precipitaciones diarias en mm
DESCASC
Precipitaciones de 00:00 a 06:00 en mm
DESCASC
Precipitaciones de 06:00 a 12:00 en mm
DESCASC
Precipitaciones de 12:00 a 18:00 en mm
DESCASC
Precipitaciones de 18:00 a 24:00 en mm
DESCASC
28-02-2021 4.2 (12:00) 0.7 (23:59) 2.4 11.11 (07:10) 6.94 (04:30) 0.2 0 0 0.2 0
27-02-2021 13.2 (15:40) 3.3 (23:40) 8.2 5.28 (14:00) 2.78 (14:00) 0 0 0 0 0
26-02-2021 12.6 (14:30) 3.7 (06:50) 8.2 6.94 (14:50) 4.72 (15:10) 0 0 0 0 0
25-02-2021 10.1 (15:30) 0.5 (00:00) 5.3 8.61 (11:50) 6.39 (01:40) 0 0 0 0 0
24-02-2021 9.7 (14:30) 2.5 (00:00) 6.1 8.89 (04:10) 6.11 (04:40) 0 0 0 0 0
23-02-2021 9 (16:00) -0.4 (00:00) 4.3 7.5 (17:20) 5 (17:20) 0 0 0 0 0
22-02-2021 4.8 (00:00) 1 (00:00) 2.9 10.83 (01:40) 7.22 (01:40) 3.6 3.6 0 0 0
21-02-2021 7.3 (14:30) 2.2 (00:00) 4.8 10.28 (01:00) 6.39 (00:30) 2.8 0 0 0 2.8
20-02-2021 13.9 (15:10) 2.5 (00:00) 8.2 13.06 (13:10) 8.89 (13:10) 0 0 0 0 0
19-02-2021 13.1 (15:10) 3.6 (00:00) 8.4 12.5 (16:00) 5.56 (13:30) 0 0 0 0 0
18-02-2021 13.4 (14:10) 6.8 (00:00) 10.1 13.61 (14:20) 7.22 (14:20) 0 0 0 0 0
17-02-2021 14.2 (15:20) 7.3 (00:00) 10.8 17.22 (13:20) 7.22 (14:00) 0 0 0 0 0
16-02-2021 15.4 (14:40) -0.3 (00:00) 7.5 14.17 (15:40) 8.33 (14:10) 0 0 0 0 0
15-02-2021 8.6 (14:40) 1.2 (00:00) 4.9 8.89 (20:40) 5.83 (14:30) 0 0 0 0 0
14-02-2021 9.3 (14:50) 2.2 (00:00) 5.8 10.83 (18:30) 7.78 (18:30) 0 0 0 0 0
13-02-2021 11.5 (14:30) 2.3 (00:00) 6.9 13.89 (01:00) 10.83 (02:50) 0 0 0 0 0
12-02-2021 7.9 (02:00) 4.5 (00:00) 6.2 17.5 (15:40) 12.5 (14:40) 0.8 0 0.8 0 0
11-02-2021 10.9 (14:40) 2.4 (00:00) 6.6 13.89 (05:00) 8.89 (20:00) 0 0 0 0 0
10-02-2021 5.5 (16:20) 0.3 (00:00) 2.9 16.39 (02:00) 11.11 (14:50) 12.4 5.8 6.6 0 0
09-02-2021 4.7 (17:30) 0.9 (00:00) 2.8 20.83 (12:20) 12.5 (01:00) 14.2 0.2 0 10 4
08-02-2021 3.6 (16:30) 0.8 (00:00) 2.2 17.5 (15:50) 11.39 (00:40) 11.2 0.4 5.2 1 4.6
07-02-2021 4.9 (15:40) -0.9 (-00:0) 2 18.89 (21:40) 10.56 (21:30) 0 0 0 0 0
06-02-2021 5.8 (00:00) 1.2 (00:00) 3.5 11.39 (02:40) 6.94 (01:40) 7.4 4.2 1 2.2 0
05-02-2021 9.7 (15:00) 5.3 (00:00) 7.5 11.67 (10:40) 6.67 (11:20) 0 0 0 0 0
04-02-2021 11.4 (13:10) 5 (00:00) 8.2 10.56 (14:10) 7.22 (14:00) 0 0 0 0 0
03-02-2021 12.4 (14:50) 4.6 (00:00) 8.5 13.89 (03:00) 8.33 (02:50) 0 0 0 0 0
02-02-2021 13 (14:40) 5 (05:30) 9 16.39 (00:20) 11.39 (00:20) 0 0 0 0 0
01-02-2021 9.1 (14:10) 4.5 (00:00) 6.8 26.11 (02:00) 15.83 (02:20) 0 0 0 0 0
31-01-2021 8 (15:20) 1.4 (00:00) 4.7 23.33 (22:20) 14.17 (22:40) 0 0 0 0 0
30-01-2021 8.1 (01:00) 1.5 (00:00) 4.8 24.17 (17:10) 12.78 (13:40) 3.4 0 3 0 0.4

Gráficas

Temp. máximas Temp. mínimas Temp. medias Precipitaciones Rachas de viento máximas Velocidades máximas media en intervalos de 10 minutos

Datos horarios

Fecha y hora oficial Temperatura (ºC) Velocidad del viento (km/h) Dirección del viento Racha (km/h) Dirección de racha Precipitación (mm) Presión (hPa) Tendencia (hPa) Humedad (%)
2021-02-28 23:00:00 1 11 Sur 18 Sur 0 -- -- 94
2021-02-28 22:00:00 1.5 8 Sur 23 Sur 0 -- -- 94
2021-02-28 21:00:00 2.1 13 Sur 29 Sur 0 -- -- 96
2021-02-28 20:00:00 2.9 15 Sur 27 Sur 0 -- -- 97
2021-02-28 19:00:00 3.1 14 Sur 24 Sur 0 -- -- 97
2021-02-28 18:00:00 3.1 13 Sur 32 Sudeste 0 -- -- 97
2021-02-28 17:00:00 3.2 17 Sur 28 Sudeste 0 -- -- 98
2021-02-28 16:00:00 3 18 Sudeste 35 Sur 0 -- -- 98
2021-02-28 15:00:00 3 19 Sudeste 36 Sudeste 0.2 -- -- 98
2021-02-28 14:00:00 2.9 18 Sur 35 Sudeste 0 -- -- 97
2021-02-28 13:00:00 2.8 22 Sur 38 Sudeste 0 -- -- 96
2021-02-28 12:00:00 4.2 21 Sudeste 37 Sur 0 -- -- 84
2021-02-28 11:00:00 2.8 21 Sur 37 Sudeste 0 -- -- 93
2021-02-28 10:00:00 2.5 18 Sudeste 31 Sudeste 0 -- -- 93
2021-02-28 09:00:00 2 17 Sur 29 Sur 0 -- -- 92
2021-02-28 08:00:00 1.6 15 Sur 40 Sur 0 -- -- 92
2021-02-28 07:00:00 1.6 24 Sur 37 Sur 0 -- -- 95
2021-02-28 06:00:00 1.7 22 Sur 38 Sur 0 -- -- 96
2021-02-28 05:00:00 2.4 21 Sur 35 Sur 0 -- -- 94
2021-02-28 04:00:00 2.8 13 Sur 28 Sur 0 -- -- 95
2021-02-28 03:00:00 2.8 9 Sur 16 Sur 0 -- -- 94
2021-02-28 02:00:00 2.3 2 Sudeste 6 Noroeste 0 -- -- 93
2021-02-28 01:00:00 2.9 2 Noroeste 5 Noroeste 0 -- -- 89
2021-02-28 00:00:00 3.5 5 Oeste 11 Noroeste 0 -- -- 89
2021-02-27 23:00:00 4 6 Noroeste 12 Noroeste 0 -- -- 83
2021-02-27 22:00:00 5.3 0 Calma 4 Este 0 -- -- 69
2021-02-27 21:00:00 5.7 0 Calma 8 Sudeste 0 -- -- 67
2021-02-27 20:00:00 7.4 2 Oeste 9 Oeste 0 -- -- 61
2021-02-27 19:00:00 8.2 6 Noroeste 8 Nordeste 0 -- -- 53
2021-02-27 18:00:00 10.8 5 Nordeste 11 Nordeste 0 -- -- 40
2021-02-27 17:00:00 12.3 6 Sur 15 Este 0 -- -- 42
2021-02-27 16:00:00 13 6 Nordeste 15 Nordeste 0 -- -- 31
2021-02-27 15:00:00 13 9 Nordeste 17 Este 0 -- -- 31
2021-02-27 14:00:00 12.6 10 Sudeste 19 Sudeste 0 -- -- 42
2021-02-27 13:00:00 12.5 8 Sudeste 16 Sudeste 0 -- -- 44
2021-02-27 12:00:00 11.9 7 Sudeste 17 Este 0 -- -- 39
2021-02-27 11:00:00 11 3 Sudeste 6 Este 0 -- -- 40
2021-02-27 10:00:00 8.3 3 Norte 5 Nordeste 0 -- -- 62
2021-02-27 09:00:00 7.9 4 Norte 8 Noroeste 0 -- -- 54
2021-02-27 08:00:00 5.5 6 Noroeste 11 Noroeste 0 -- -- 54
2021-02-27 07:00:00 5.8 4 Noroeste 13 Oeste 0 -- -- 50
2021-02-27 06:00:00 5.3 8 Oeste 12 Oeste 0 -- -- 59
2021-02-27 05:00:00 5.3 8 Noroeste 10 Noroeste 0 -- -- 63
2021-02-27 04:00:00 5.9 6 Noroeste 8 Oeste 0 -- -- 61
2021-02-27 03:00:00 5.7 6 Oeste 10 Oeste 0 -- -- 66
2021-02-27 02:00:00 7 2 Noroeste 9 Oeste 0 -- -- 56
2021-02-27 01:00:00 6.4 4 Oeste 12 Oeste 0 -- -- 54
2021-02-27 00:00:00 5.5 8 Noroeste 12 Noroeste 0 -- -- 81
2021-02-26 23:00:00 5.8 8 Noroeste 14 Noroeste 0 -- -- 80
2021-02-26 22:00:00 6.2 9 Noroeste 15 Noroeste 0 -- -- 78
2021-02-26 21:00:00 6.8 10 Noroeste 17 Noroeste 0 -- -- 58
2021-02-26 20:00:00 8.4 5 Oeste 8 Noroeste 0 -- -- 35
2021-02-26 19:00:00 7.9 3 Sudoeste 6 Sudoeste 0 -- -- 44
2021-02-26 18:00:00 10.4 4 Sudoeste 14 Sur 0 -- -- 43
2021-02-26 17:00:00 12.3 8 Sur 17 Sur 0 -- -- 34
2021-02-26 16:00:00 12.6 10 Sudeste 23 Sur 0 -- -- 35
2021-02-26 15:00:00 12.5 14 Sudeste 25 Sur 0 -- -- 38
2021-02-26 14:00:00 12.1 12 Sudeste 22 Sudeste 0 -- -- 36
2021-02-26 13:00:00 12.1 15 Sudeste 23 Sudeste 0 -- -- 32
2021-02-26 12:00:00 11.3 12 Sudeste 18 Sudeste 0 -- -- 39
2021-02-26 11:00:00 9.1 4 Nordeste 8 Este 0 -- -- 59
2021-02-26 10:00:00 6.2 3 Norte 4 Norte 0 -- -- 69
2021-02-26 09:00:00 4.4 0 Calma 3 Sudoeste 0 -- -- 67
2021-02-26 08:00:00 3.9 0 Calma 5 Oeste 0 -- -- 70
2021-02-26 07:00:00 3.9 3 Noroeste 10 Sur 0 -- -- 64
2021-02-26 06:00:00 4.8 8 Sur 16 Sur 0 -- -- 62
2021-02-26 05:00:00 4.3 4 Sudoeste 17 Sur 0 -- -- 71
2021-02-26 04:00:00 4.7 10 Sur 15 Sur 0 -- -- 71
2021-02-26 03:00:00 4.9 8 Sur 18 Sur 0 -- -- 79
2021-02-26 02:00:00 5.3 13 Sur 19 Sur 0 -- -- 82
2021-02-26 01:00:00 5.5 13 Sur 18 Sur 0 -- -- 84
2021-02-26 00:00:00 5.5 11 Sur 16 Sur 0 -- -- 81
2021-02-25 23:00:00 5.9 12 Sur 16 Sur 0 -- -- 77
2021-02-25 22:00:00 5.7 12 Sur 15 Sur 0 -- -- 74
2021-02-25 21:00:00 5.9 7 Sur 13 Sur 0 -- -- 82
2021-02-25 20:00:00 5.7 10 Sur 13 Sur 0 -- -- 87
2021-02-25 19:00:00 6.4 8 Sur 12 Sur 0 -- -- 83
2021-02-25 18:00:00 8.1 8 Sur 15 Sudeste 0 -- -- 77
2021-02-25 17:00:00 9.4 10 Sudeste 20 Sudeste 0 -- -- 74
2021-02-25 16:00:00 9.7 12 Sudeste 24 Sudeste 0 -- -- 74
2021-02-25 15:00:00 9.7 14 Sudeste 25 Sudeste 0 -- -- 73
2021-02-25 14:00:00 8.6 15 Sudeste 26 Sudeste 0 -- -- 78
2021-02-25 13:00:00 7.9 16 Sudeste 24 Sudeste 0 -- -- 80
2021-02-25 12:00:00 6.4 18 Sudeste 31 Sudeste 0 -- -- 84
2021-02-25 11:00:00 5.6 12 Sudeste 20 Sudeste 0 -- -- 84
2021-02-25 10:00:00 4.7 12 Sudeste 23 Sudoeste 0 -- -- 84
2021-02-25 09:00:00 2.3 11 Sur 22 Sur 0 -- -- 94
2021-02-25 08:00:00 0.6 18 Sur 25 Sur 0 -- -- 94
2021-02-25 07:00:00 0.8 14 Sur 18 Sur 0 -- -- 95
2021-02-25 06:00:00 1.3 11 Sur 22 Sur 0 -- -- 94
2021-02-25 05:00:00 2.1 12 Sur 27 Sur 0 -- -- 93
2021-02-25 04:00:00 2.6 17 Sur 27 Sur 0 -- -- 95
2021-02-25 03:00:00 2.7 18 Sur 27 Sur 0 -- -- 96
2021-02-25 02:00:00 2.4 15 Sur 31 Sur 0 -- -- 96
2021-02-25 01:00:00 2.5 18 Sur 26 Sur 0 -- -- 96
2021-02-25 00:00:00 2.9 17 Sur 26 Sur 0 -- -- 95
2021-02-24 23:00:00 3.7 17 Sur 27 Sur 0 -- -- 94
2021-02-24 22:00:00 3.9 14 Sur 21 Sur 0 -- -- 92
2021-02-24 21:00:00 4.2 9 Sur 22 Sur 0 -- -- 87
2021-02-24 20:00:00 4.5 14 Sur 24 Sur 0 -- -- 87
2021-02-24 19:00:00 4.8 11 Sur 18 Sur 0 -- -- 84
2021-02-24 18:00:00 6.8 10 Sur 23 Sudeste 0 -- -- 78
2021-02-24 17:00:00 8.1 18 Sudeste 31 Sudeste 0 -- -- 71
2021-02-24 16:00:00 9 19 Sudeste 31 Sudeste 0 -- -- 68
2021-02-24 15:00:00 9.6 17 Sudeste 31 Sur 0 -- -- 69
2021-02-24 14:00:00 9.6 15 Sur 30 Sudeste 0 -- -- 70
2021-02-24 13:00:00 9.3 17 Sur 31 Sudeste 0 -- -- 71
2021-02-24 12:00:00 6.6 17 Sur 28 Sur 0 -- -- 88
2021-02-24 11:00:00 5.1 14 Sur 23 Sur 0 -- -- 95
2021-02-24 10:00:00 4.1 16 Sur 26 Sur 0 -- -- 97
2021-02-24 09:00:00 3.3 16 Sur 25 Sur 0 -- -- 97
2021-02-24 08:00:00 3 17 Sur 28 Sur 0 -- -- 94
2021-02-24 07:00:00 4.1 14 Sur 23 Sur 0 -- -- 88
2021-02-24 06:00:00 4.2 13 Sur 24 Sur 0 -- -- 88
2021-02-24 05:00:00 4.2 18 Sur 32 Sur 0 -- -- 87
2021-02-24 04:00:00 4 17 Sur 32 Sur 0 -- -- 88
2021-02-24 03:00:00 3.8 14 Sur 26 Sur 0 -- -- 91
2021-02-24 02:00:00 3.3 13 Sur 22 Sur 0 -- -- 96
2021-02-24 01:00:00 2.9 12 Sur 22 Sur 0 -- -- 95
2021-02-24 00:00:00 3.1 12 Sur 21 Sur 0 -- -- 95
2021-02-23 23:00:00 4.2 9 Sur 20 Sudoeste 0 -- -- 90
2021-02-23 22:00:00 3.8 12 Sur 16 Sur 0 -- -- 85
2021-02-23 21:00:00 3.8 6 Sur 9 Sur 0 -- -- 80
2021-02-23 20:00:00 4.1 5 Sudoeste 8 Sur 0 -- -- 77
2021-02-23 19:00:00 5.3 4 Sudoeste 18 Sur 0 -- -- 73
2021-02-23 18:00:00 6.8 12 Sur 27 Sur 0 -- -- 67
2021-02-23 17:00:00 8.5 14 Sudeste 25 Sudeste 0 -- -- 60
2021-02-23 16:00:00 9 9 Sur 24 Sudeste 0 -- -- 53
2021-02-23 15:00:00 8.9 10 Sur 22 Sudeste 0 -- -- 50
2021-02-23 14:00:00 7.7 12 Sudeste 21 Sudeste 0 -- -- 62
2021-02-23 13:00:00 7 9 Sur 22 Sudeste 0 -- -- 69
2021-02-23 12:00:00 5.9 14 Sudeste 24 Sur 0 -- -- 73
2021-02-23 11:00:00 5.1 12 Sur 18 Sur 0 -- -- 76
2021-02-23 10:00:00 3.1 9 Sudeste 15 Sudeste 0 -- -- 84
2021-02-23 09:00:00 2.1 0 Calma 3 Este 0 -- -- 89
2021-02-23 08:00:00 -0.3 0 Calma 5 Sudoeste 0 -- -- 93
2021-02-23 07:00:00 0 8 Sudoeste 14 Oeste 0 -- -- 95
2021-02-23 06:00:00 0.3 6 Oeste 9 Sudoeste 0 -- -- 97
2021-02-23 05:00:00 0.3 0 Calma 6 Este 0 -- -- 98
2021-02-23 04:00:00 0.2 0 Calma 9 Oeste 0 -- -- 98
2021-02-23 03:00:00 0.2 8 Noroeste 14 Oeste 0 -- -- 97
2021-02-23 02:00:00 0.7 7 Noroeste 13 Norte 0 -- -- 97
2021-02-23 01:00:00 1.1 9 Norte 15 Noroeste 0 -- -- 96
2021-02-23 00:00:00 1.5 9 Norte 14 Norte 0 -- -- 96
2021-02-22 23:00:00 1.7 6 Norte 16 Norte 0 -- -- 95
2021-02-22 22:00:00 1.8 12 Norte 18 Norte 0 -- -- 95
2021-02-22 21:00:00 1.7 13 Norte 22 Norte 0 -- -- 95
2021-02-22 20:00:00 1.9 14 Norte 22 Norte 0 -- -- 93
2021-02-22 19:00:00 1.9 11 Noroeste 21 Norte 0 -- -- 95
2021-02-22 18:00:00 1.9 15 Norte 22 Norte 0 -- -- 93
2021-02-22 17:00:00 2.7 10 Norte 22 Nordeste 0 -- -- 89
2021-02-22 16:00:00 3.2 12 Norte 21 Norte 0 -- -- 85
2021-02-22 15:00:00 3.1 9 Nordeste 16 Nordeste 0 -- -- 89
2021-02-22 14:00:00 2.8 7 Nordeste 13 Este 0 -- -- 91
2021-02-22 13:00:00 2.9 6 Nordeste 21 Noroeste 0 -- -- 89
2021-02-22 12:00:00 2.8 12 Noroeste 18 Noroeste 0 -- -- 86
2021-02-22 11:00:00 2.5 10 Noroeste 15 Noroeste 0 -- -- 87
2021-02-22 10:00:00 1.9 5 Noroeste 21 Noroeste 0 -- -- 90
2021-02-22 09:00:00 1.5 13 Noroeste 18 Noroeste 0 -- -- 90
2021-02-22 08:00:00 1.1 8 Noroeste 12 Noroeste 0 -- -- 90
2021-02-22 07:00:00 1 4 Noroeste 18 Sudoeste 0 -- -- 89
2021-02-22 06:00:00 1.1 5 Norte 36 Oeste 0 -- -- 88
2021-02-22 05:00:00 1.5 7 Noroeste 22 Norte 0 -- -- 89
2021-02-22 04:00:00 2 5 Oeste 28 Oeste 0 -- -- 88
2021-02-22 03:00:00 2.3 14 Noroeste 35 Sudoeste 0.2 -- -- 89
2021-02-22 02:00:00 2.1 18 Oeste 39 Oeste 1.8 -- -- 91
2021-02-22 01:00:00 2.6 17 Sudoeste 33 Sur 1.6 -- -- 92
2021-02-22 00:00:00 4.8 10 Sudeste 28 Sur 0.8 -- -- 96
2021-02-21 23:00:00 4.8 9 Sudeste 21 Sudeste 2 -- -- 95
2021-02-21 22:00:00 4.9 9 Sudeste 19 Sur 0 -- -- 93
2021-02-21 21:00:00 5 10 Sudeste 20 Sudeste 0 -- -- 90
2021-02-21 20:00:00 5.3 7 Sudeste 15 Sur 0 -- -- 87
2021-02-21 19:00:00 5.5 3 Sudeste 12 Sudeste 0 -- -- 86
2021-02-21 18:00:00 6 9 Sur 19 Sur 0 -- -- 83
2021-02-21 17:00:00 6.5 10 Sur 19 Sur 0 -- -- 80
2021-02-21 16:00:00 6.6 13 Sudeste 21 Sudeste 0 -- -- 78
2021-02-21 15:00:00 6.9 11 Sur 18 Sur 0 -- -- 75
2021-02-21 14:00:00 7.1 7 Sudeste 21 Sudeste 0 -- -- 74
2021-02-21 13:00:00 6.3 13 Sudeste 29 Sudeste 0 -- -- 78
2021-02-21 12:00:00 5.4 12 Sudeste 24 Sudeste 0 -- -- 83
2021-02-21 11:00:00 4.2 13 Sudeste 25 Sudeste 0 -- -- 85
2021-02-21 10:00:00 3.8 11 Sudeste 17 Sudeste 0 -- -- 84
2021-02-21 09:00:00 4.4 7 Sudeste 28 Sur 0 -- -- 73
2021-02-21 08:00:00 5.7 17 Sur 35 Sur 0 -- -- 63
2021-02-21 07:00:00 5.5 17 Sur 36 Sur 0 -- -- 62
2021-02-21 06:00:00 5.3 17 Sur 37 Sur 0 -- -- 66
2021-02-21 05:00:00 4.2 19 Sur 36 Sur 0 -- -- 79
2021-02-21 04:00:00 2.7 18 Sur 35 Sur 0 -- -- 96
2021-02-21 03:00:00 2.7 22 Sur 32 Sur 0 -- -- 95
2021-02-21 02:00:00 2.8 20 Sur 35 Sur 0 -- -- 94
2021-02-21 01:00:00 2.4 22 Sur 37 Sur 0 -- -- 95
2021-02-21 00:00:00 2.6 23 Sur 36 Sur 0 -- -- 95
2021-02-20 23:00:00 2.9 19 Sur 31 Sur 0 -- -- 95
2021-02-20 22:00:00 3.4 22 Sur 30 Sur 0 -- -- 92
2021-02-20 21:00:00 4.8 20 Sur 39 Sur 0 -- -- 80
2021-02-20 20:00:00 5.2 18 Sur 31 Sur 0 -- -- 73
2021-02-20 19:00:00 6 14 Sur 30 Sudeste 0 -- -- 73
2021-02-20 18:00:00 7.8 16 Sudeste 32 Sudeste 0 -- -- 63
2021-02-20 17:00:00 10.3 24 Sudeste 41 Sudeste 0 -- -- 51
2021-02-20 16:00:00 11.2 21 Sudeste 41 Sudeste 0 -- -- 44
2021-02-20 15:00:00 13.8 24 Sur 46 Sudeste 0 -- -- 30
2021-02-20 14:00:00 13.3 29 Sudeste 47 Sur 0 -- -- 30
2021-02-20 13:00:00 13.3 24 Sur 45 Sur 0 -- -- 30
2021-02-20 12:00:00 12.5 23 Sur 42 Sur 0 -- -- 32
2021-02-20 11:00:00 10.2 12 Sur 28 Sudeste 0 -- -- 36
2021-02-20 10:00:00 8.6 15 Sudeste 23 Sudeste 0 -- -- 48
2021-02-20 09:00:00 6.9 9 Sudeste 27 Sur 0 -- -- 50
2021-02-20 08:00:00 5.9 15 Sur 32 Sur 0 -- -- 48
2021-02-20 07:00:00 6.4 15 Sur 40 Sudoeste 0 -- -- 47
2021-02-20 06:00:00 6.7 12 Sur 26 Sur 0 -- -- 48
2021-02-20 05:00:00 6.6 9 Sur 37 Sudoeste 0 -- -- 51
2021-02-20 04:00:00 8.2 15 Sudoeste 34 Sudoeste 0 -- -- 45
2021-02-20 03:00:00 7.8 15 Sur 40 Sudoeste 0 -- -- 49
2021-02-20 02:00:00 7.8 19 Sudoeste 32 Sudoeste 0 -- -- 53
2021-02-20 01:00:00 7 14 Sudoeste 31 Sudoeste 0 -- -- 62
2021-02-20 00:00:00 4.8 6 Sur 18 Sur 0 -- -- 69
2021-02-19 23:00:00 5.3 8 Sur 23 Sur 0 -- -- 65
2021-02-19 22:00:00 6 8 Sur 16 Sudoeste 0 -- -- 51
2021-02-19 21:00:00 7.5 8 Sudoeste 13 Sudoeste 0 -- -- 43
2021-02-19 20:00:00 8.5 6 Sur 19 Sur 0 -- -- 42
2021-02-19 19:00:00 9.7 9 Sur 19 Sudoeste 0 -- -- 38
2021-02-19 18:00:00 11 6 Sudoeste 29 Sudoeste 0 -- -- 33
2021-02-19 17:00:00 12.4 14 Sudoeste 39 Sudoeste 0 -- -- 28
2021-02-19 16:00:00 12.8 12 Oeste 45 Oeste 0 -- -- 28
2021-02-19 15:00:00 13 14 Sudoeste 34 Sur 0 -- -- 33
2021-02-19 14:00:00 12.5 16 Sudoeste 38 Sudoeste 0 -- -- 32
2021-02-19 13:00:00 12.1 17 Sudoeste 44 Sudoeste 0 -- -- 33
2021-02-19 12:00:00 11.3 18 Sur 32 Sur 0 -- -- 41
2021-02-19 11:00:00 10.1 17 Sur 27 Sur 0 -- -- 48
2021-02-19 10:00:00 9 14 Sur 24 Sur 0 -- -- 49
2021-02-19 09:00:00 7.7 7 Sur 19 Sudoeste 0 -- -- 53
2021-02-19 08:00:00 5.6 9 Sur 20 Sudoeste 0 -- -- 66
2021-02-19 07:00:00 4.5 2 Sur 8 Oeste 0 -- -- 58
2021-02-19 06:00:00 4.2 4 Sudoeste 10 Sur 0 -- -- 56
2021-02-19 05:00:00 5.7 5 Oeste 19 Noroeste 0 -- -- 49
2021-02-19 04:00:00 6 10 Oeste 27 Noroeste 0 -- -- 50
2021-02-19 03:00:00 5.8 8 Noroeste 27 Noroeste 0 -- -- 53
2021-02-19 02:00:00 6 10 Oeste 24 Oeste 0 -- -- 54
2021-02-19 01:00:00 6.5 10 Oeste 26 Oeste 0 -- -- 55
2021-02-19 00:00:00 7 8 Noroeste 20 Noroeste 0 -- -- 50
2021-02-18 23:00:00 7.2 4 Oeste 18 Oeste 0 -- -- 50
2021-02-18 22:00:00 7.4 8 Oeste 19 Oeste 0 -- -- 49
2021-02-18 21:00:00 7.3 7 Oeste 24 Noroeste 0 -- -- 49
2021-02-18 20:00:00 7.9 12 Noroeste 31 Oeste 0 -- -- 44
2021-02-18 19:00:00 8.9 14 Noroeste 25 Noroeste 0 -- -- 40
2021-02-18 18:00:00 10.3 11 Noroeste 31 Noroeste 0 -- -- 36
2021-02-18 17:00:00 12.2 21 Noroeste 29 Noroeste 0 -- -- 31
2021-02-18 16:00:00 12.3 15 Noroeste 39 Oeste 0 -- -- 31
2021-02-18 15:00:00 13 22 Noroeste 49 Noroeste 0 -- -- 29
2021-02-18 14:00:00 13.1 14 Oeste 33 Oeste 0 -- -- 31
2021-02-18 13:00:00 13.1 10 Sudoeste 35 Noroeste 0 -- -- 34
2021-02-18 12:00:00 12.4 11 Oeste 28 Oeste 0 -- -- 37
2021-02-18 11:00:00 12 9 Sudoeste 23 Sudoeste 0 -- -- 36
2021-02-18 10:00:00 10.8 9 Sudoeste 25 Sudoeste 0 -- -- 36
2021-02-18 09:00:00 10.3 12 Sudoeste 25 Sudoeste 0 -- -- 32
2021-02-18 08:00:00 8.8 14 Sudoeste 22 Sudoeste 0 -- -- 34
2021-02-18 07:00:00 8.1 16 Sudoeste 22 Sudoeste 0 -- -- 40
2021-02-18 06:00:00 8 15 Oeste 23 Oeste 0 -- -- 41
2021-02-18 05:00:00 7.3 12 Oeste 32 Sudoeste 0 -- -- 45
2021-02-18 04:00:00 8.3 10 Oeste 21 Sudoeste 0 -- -- 42
2021-02-18 03:00:00 8.8 10 Sudoeste 24 Sudoeste 0 -- -- 40
2021-02-18 02:00:00 9.2 11 Sudoeste 27 Sudoeste 0 -- -- 40
2021-02-18 01:00:00 9.1 12 Sudoeste 30 Sudoeste 0 -- -- 41
2021-02-18 00:00:00 9.3 13 Sudoeste 28 Sudoeste 0 -- -- 40
2021-02-17 23:00:00 9 10 Sudoeste 23 Sudoeste 0 -- -- 40
2021-02-17 22:00:00 9.1 5 Sudoeste 26 Sur 0 -- -- 40
2021-02-17 21:00:00 9.3 9 Sur 23 Sur 0 -- -- 41
2021-02-17 20:00:00 9.5 2 Norte 15 Noroeste 0 -- -- 38
2021-02-17 19:00:00 9.9 3 Sur 26 Oeste 0 -- -- 40
2021-02-17 18:00:00 11.6 12 Oeste 37 Oeste 0 -- -- 37
2021-02-17 17:00:00 13.1 16 Oeste 36 Oeste 0 -- -- 31
2021-02-17 16:00:00 13.6 17 Sudoeste 45 Oeste 0 -- -- 30
2021-02-17 15:00:00 14.1 18 Oeste 53 Oeste 0 -- -- 30
2021-02-17 14:00:00 13.3 26 Oeste 62 Oeste 0 -- -- 32
2021-02-17 13:00:00 12.5 23 Oeste 42 Oeste 0 -- -- 33
2021-02-17 12:00:00 10.5 11 Oeste 47 Sudoeste 0 -- -- 40
2021-02-17 11:00:00 9.4 19 Oeste 36 Sur 0 -- -- 43
2021-02-17 10:00:00 8.8 18 Oeste 37 Sudoeste 0 -- -- 45
2021-02-17 09:00:00 7.9 17 Oeste 29 Oeste 0 -- -- 56
2021-02-17 08:00:00 7.4 11 Oeste 25 Oeste 0 -- -- 61
2021-02-17 07:00:00 7.5 12 Oeste 30 Noroeste 0 -- -- 61
2021-02-17 06:00:00 7.7 14 Oeste 35 Oeste 0 -- -- 58
2021-02-17 05:00:00 7.7 14 Oeste 29 Noroeste 0 -- -- 54
2021-02-17 04:00:00 7.9 14 Oeste 26 Oeste 0 -- -- 50
2021-02-17 03:00:00 8 12 Oeste 28 Oeste 0 -- -- 52
2021-02-17 02:00:00 7.9 12 Oeste 28 Oeste 0 -- -- 56
2021-02-17 01:00:00 8.1 17 Oeste 28 Oeste 0 -- -- 56
2021-02-17 00:00:00 8.1 15 Oeste 28 Oeste 0 -- -- 57
2021-02-16 23:00:00 8.2 16 Oeste 30 Oeste 0 -- -- 55
2021-02-16 22:00:00 8.7 14 Oeste 24 Oeste 0 -- -- 48
2021-02-16 21:00:00 9 12 Oeste 22 Sudoeste 0 -- -- 45
2021-02-16 20:00:00 9.5 7 Sudoeste 23 Oeste 0 -- -- 43
2021-02-16 19:00:00 10.5 10 Oeste 26 Oeste 0 -- -- 40
2021-02-16 18:00:00 12.1 11 Oeste 33 Oeste 0 -- -- 38
2021-02-16 17:00:00 13.5 24 Noroeste 46 Noroeste 0 -- -- 33
2021-02-16 16:00:00 14.6 20 Noroeste 51 Noroeste 0 -- -- 32
2021-02-16 15:00:00 15.3 27 Noroeste 45 Oeste 0 -- -- 30
2021-02-16 14:00:00 15.2 29 Noroeste 44 Noroeste 0 -- -- 30
2021-02-16 13:00:00 15 20 Oeste 41 Oeste 0 -- -- 29
2021-02-16 12:00:00 14 23 Noroeste 40 Oeste 0 -- -- 24
2021-02-16 11:00:00 13.6 14 Noroeste 32 Noroeste 0 -- -- 21
2021-02-16 10:00:00 13.3 12 Oeste 28 Oeste 0 -- -- 17
2021-02-16 09:00:00 11.5 12 Oeste 22 Oeste 0 -- -- 20
2021-02-16 08:00:00 9.9 6 Oeste 25 Noroeste 0 -- -- 31
2021-02-16 07:00:00 10 10 Oeste 27 Oeste 0 -- -- 21
2021-02-16 06:00:00 1.1 9 Oeste 18 Oeste 0 -- -- 98
2021-02-16 05:00:00 -0.1 5 Sudeste 13 Sudeste 0 -- -- 97
2021-02-16 04:00:00 0.1 4 Sudeste 13 Sudeste 0 -- -- 97
2021-02-16 03:00:00 0.4 5 Sudeste 14 Sudeste 0 -- -- 96
2021-02-16 02:00:00 0.2 3 Sudeste 8 Sudeste 0 -- -- 95
2021-02-16 01:00:00 0.6 4 Sudeste 18 Este 0 -- -- 95
2021-02-16 00:00:00 1.2 10 Sudeste 29 Sudeste 0 -- -- 94
2021-02-15 23:00:00 1.5 13 Sudeste 23 Sudeste 0 -- -- 94
2021-02-15 22:00:00 1.8 5 Sur 29 Sur 0 -- -- 91
2021-02-15 21:00:00 2.6 11 Sur 32 Sur 0 -- -- 92
2021-02-15 20:00:00 3.4 18 Sur 30 Sur 0 -- -- 91
2021-02-15 19:00:00 4.1 11 Sur 20 Sudeste 0 -- -- 88
2021-02-15 18:00:00 5.7 10 Sudeste 22 Sudeste 0 -- -- 81
2021-02-15 17:00:00 7.3 14 Sudeste 26 Sudeste 0 -- -- 75
2021-02-15 16:00:00 8.2 17 Sudeste 28 Sudeste 0 -- -- 73
2021-02-15 15:00:00 8.5 18 Sudeste 28 Sudeste 0 -- -- 72
2021-02-15 14:00:00 8.3 19 Sudeste 27 Sudeste 0 -- -- 71
2021-02-15 13:00:00 7.8 18 Sudeste 27 Sudeste 0 -- -- 73
2021-02-15 12:00:00 7.7 14 Sur 27 Sur 0 -- -- 70
2021-02-15 11:00:00 5.6 17 Sur 28 Sur 0 -- -- 81
2021-02-15 10:00:00 2.9 16 Sur 23 Sur 0 -- -- 92
2021-02-15 09:00:00 2 7 Sur 21 Sur 0 -- -- 93
2021-02-15 08:00:00 2 8 Sur 19 Sudoeste 0 -- -- 94
2021-02-15 07:00:00 2.4 9 Sur 20 Sur 0 -- -- 95
2021-02-15 06:00:00 2.5 11 Sur 23 Sur 0 -- -- 94
2021-02-15 05:00:00 2.7 10 Sur 24 Sur 0 -- -- 93
2021-02-15 04:00:00 2.7 12 Sur 23 Sur 0 -- -- 96
2021-02-15 03:00:00 2.7 9 Sudeste 21 Sur 0 -- -- 97
2021-02-15 02:00:00 2.8 7 Sudeste 20 Sur 0 -- -- 97
2021-02-15 01:00:00 2.8 7 Sur 24 Sur 0 -- -- 97
2021-02-15 00:00:00 2.9 12 Sur 27 Sur 0 -- -- 97
2021-02-14 23:00:00 2.8 15 Sur 33 Sur 0 -- -- 97
2021-02-14 22:00:00 2.5 22 Sur 30 Sur 0 -- -- 95
2021-02-14 21:00:00 3 18 Sur 28 Sudoeste 0 -- -- 90
2021-02-14 20:00:00 3.5 17 Sur 36 Sur 0 -- -- 88
2021-02-14 19:00:00 4.2 26 Sur 39 Sur 0 -- -- 88
2021-02-14 18:00:00 5.6 16 Sur 35 Sur 0 -- -- 79
2021-02-14 17:00:00 7.8 21 Sur 34 Sur 0 -- -- 69
2021-02-14 16:00:00 9.1 18 Sur 30 Sudeste 0 -- -- 63
2021-02-14 15:00:00 9.2 16 Sudeste 29 Sur 0 -- -- 62
2021-02-14 14:00:00 8.9 19 Sudeste 29 Sudeste 0 -- -- 65
2021-02-14 13:00:00 8.1 18 Sudeste 27 Sudeste 0 -- -- 67
2021-02-14 12:00:00 7.4 18 Sudeste 26 Sudeste 0 -- -- 71
2021-02-14 11:00:00 6.8 13 Sudeste 19 Sudeste 0 -- -- 76
2021-02-14 10:00:00 6.3 8 Sudeste 11 Sudeste 0 -- -- 77
2021-02-14 09:00:00 4.4 3 Sudeste 10 Sur 0 -- -- 84
2021-02-14 08:00:00 2.6 0 Calma 11 Oeste 0 -- -- 86
2021-02-14 07:00:00 2.8 7 Noroeste 15 Noroeste 0 -- -- 85
2021-02-14 06:00:00 2.5 9 Noroeste 14 Noroeste 0 -- -- 86
2021-02-14 05:00:00 2.6 11 Noroeste 21 Noroeste 0 -- -- 87
2021-02-14 04:00:00 2.8 14 Noroeste 23 Noroeste 0 -- -- 85
2021-02-14 03:00:00 2.9 15 Noroeste 24 Noroeste 0 -- -- 86
2021-02-14 02:00:00 3.2 15 Noroeste 27 Norte 0 -- -- 85
2021-02-14 01:00:00 2.8 11 Noroeste 23 Noroeste 0 -- -- 86
2021-02-14 00:00:00 3.3 16 Noroeste 28 Noroeste 0 -- -- 83
2021-02-13 23:00:00 3.7 18 Noroeste 27 Noroeste 0 -- -- 82
2021-02-13 22:00:00 4.3 18 Noroeste 27 Noroeste 0 -- -- 76
2021-02-13 21:00:00 4.7 18 Noroeste 26 Noroeste 0 -- -- 73
2021-02-13 20:00:00 5 13 Noroeste 24 Noroeste 0 -- -- 66
2021-02-13 19:00:00 6 11 Noroeste 19 Noroeste 0 -- -- 57
2021-02-13 18:00:00 7.2 3 Noroeste 18 Norte 0 -- -- 51
2021-02-13 17:00:00 9.7 8 Nordeste 15 Nordeste 0 -- -- 49
2021-02-13 16:00:00 9.7 9 Norte 17 Norte 0 -- -- 50
2021-02-13 15:00:00 10.4 10 Nordeste 27 Noroeste 0 -- -- 45
2021-02-13 14:00:00 10.6 13 Norte 29 Noroeste 0 -- -- 35
2021-02-13 13:00:00 9.6 17 Noroeste 25 Norte 0 -- -- 38
2021-02-13 08:00:00 -- -- -- -- -- -- -- -- --
2021-02-13 07:00:00 3.2 28 Noroeste 41 Noroeste 0 -- -- 81
2021-02-13 06:00:00 3.1 30 Noroeste 49 Noroeste 0 -- -- 84
2021-02-13 05:00:00 3.3 33 Noroeste 44 Noroeste 0 -- -- 82
2021-02-13 04:00:00 3 26 Noroeste 48 Noroeste 0 -- -- 84
2021-02-13 03:00:00 3.6 33 Noroeste 49 Noroeste 0 -- -- 80
2021-02-13 02:00:00 3.6 28 Noroeste 50 Norte 0 -- -- 79
2021-02-13 01:00:00 4.1 34 Noroeste 50 Noroeste 0 -- -- 79
2021-02-13 00:00:00 4.7 27 Norte 43 Noroeste 0 -- -- 79
2021-02-12 23:00:00 4.9 31 Noroeste 44 Noroeste 0 -- -- 80
2021-02-12 22:00:00 5.1 25 Noroeste 48 Noroeste 0 -- -- 82
2021-02-12 21:00:00 4.8 23 Noroeste 48 Noroeste 0 -- -- 82
2021-02-12 20:00:00 5.5 30 Noroeste 53 Noroeste 0 -- -- 78
2021-02-12 19:00:00 5.3 39 Noroeste 55 Noroeste 0 -- -- 79
2021-02-12 18:00:00 5.7 36 Noroeste 52 Noroeste 0 -- -- 77
2021-02-12 17:00:00 6 43 Noroeste 62 Noroeste 0 -- -- 75
2021-02-12 16:00:00 7.2 42 Noroeste 63 Noroeste 0 -- -- 68
2021-02-12 15:00:00 7.3 38 Noroeste 59 Noroeste 0 -- -- 64
2021-02-12 14:00:00 6.6 32 Noroeste 52 Norte 0 -- -- 72
2021-02-12 13:00:00 6.4 29 Noroeste 45 Noroeste 0 -- -- 73
2021-02-12 12:00:00 6.9 26 Noroeste 47 Noroeste 0 -- -- 80
2021-02-12 11:00:00 5.8 24 Noroeste 55 Noroeste 0.4 -- -- 84
2021-02-12 10:00:00 6.4 23 Noroeste 44 Oeste 0.4 -- -- 86
2021-02-12 09:00:00 6.5 7 Oeste 21 Oeste 0 -- -- 86
2021-02-12 08:00:00 6.6 6 Sudoeste 27 Oeste 0 -- -- 83
2021-02-12 07:00:00 6.9 14 Oeste 32 Sudoeste 0 -- -- 85
2021-02-12 06:00:00 7.2 14 Oeste 35 Oeste 0 -- -- 84
2021-02-12 05:00:00 7.3 18 Oeste 40 Oeste 0 -- -- 87
2021-02-12 04:00:00 7.6 21 Oeste 39 Sudoeste 0 -- -- 85
2021-02-12 03:00:00 7.8 9 Sudoeste 48 Oeste 0 -- -- 81
2021-02-12 02:00:00 7.9 12 Oeste 35 Sudoeste 0 -- -- 83
2021-02-12 01:00:00 7.7 11 Oeste 28 Sudoeste 0 -- -- 84
2021-02-12 00:00:00 7.6 9 Oeste 24 Oeste 0 -- -- 85
2021-02-11 23:00:00 7.5 4 Noroeste 21 Noroeste 0 -- -- 85
2021-02-11 22:00:00 7.6 10 Oeste 31 Noroeste 0 -- -- 86
2021-02-11 21:00:00 7.9 8 Sudoeste 48 Oeste 0 -- -- 83
2021-02-11 20:00:00 7.9 32 Noroeste 49 Noroeste 0 -- -- 81
2021-02-11 19:00:00 7.5 13 Noroeste 28 Noroeste 0 -- -- 81
2021-02-11 18:00:00 7.8 15 Noroeste 28 Oeste 0 -- -- 81
2021-02-11 17:00:00 8.4 12 Noroeste 24 Noroeste 0 -- -- 77
2021-02-11 16:00:00 8.8 14 Noroeste 27 Noroeste 0 -- -- 77
2021-02-11 15:00:00 10.8 19 Noroeste 32 Noroeste 0 -- -- 69
2021-02-11 14:00:00 10.5 17 Noroeste 34 Noroeste 0 -- -- 65
2021-02-11 13:00:00 9.9 18 Noroeste 30 Oeste 0 -- -- 70
2021-02-11 12:00:00 9.1 18 Noroeste 40 Noroeste 0 -- -- 72
2021-02-11 11:00:00 8.6 13 Noroeste 31 Noroeste 0 -- -- 73
2021-02-11 10:00:00 7.2 17 Noroeste 34 Noroeste 0 -- -- 80
2021-02-11 09:00:00 6.1 14 Noroeste 32 Noroeste 0 -- -- 81
2021-02-11 08:00:00 5.2 20 Noroeste 36 Noroeste 0 -- -- 82
2021-02-11 07:00:00 4.4 15 Noroeste 30 Oeste 0 -- -- 71
2021-02-11 06:00:00 3.8 3 Noroeste 42 Noroeste 0 -- -- 84
2021-02-11 05:00:00 4.7 31 Oeste 50 Oeste 0 -- -- 74
2021-02-11 04:00:00 3.6 10 Noroeste 31 Oeste 0 -- -- 66
2021-02-11 03:00:00 3.9 13 Noroeste 35 Oeste 0 -- -- 60
2021-02-11 02:00:00 4 18 Oeste 31 Noroeste 0 -- -- 62
2021-02-11 01:00:00 4.2 11 Oeste 28 Oeste 0 -- -- 58
2021-02-11 00:00:00 2.5 3 Oeste 14 Sur 0 -- -- 79
2021-02-10 23:00:00 2.3 8 Sur 15 Sudeste 0 -- -- 81
2021-02-10 22:00:00 2.2 6 Sudeste 21 Sur 0 -- -- 79
2021-02-10 21:00:00 2.6 5 Sudeste 29 Oeste 0 -- -- 78
2021-02-10 20:00:00 2.9 20 Noroeste 39 Noroeste 0 -- -- 75
2021-02-10 19:00:00 3.2 18 Noroeste 33 Oeste 0 -- -- 73
2021-02-10 18:00:00 4.1 19 Noroeste 36 Noroeste 0 -- -- 72
2021-02-10 17:00:00 5.2 24 Noroeste 40 Noroeste 0 -- -- 68
2021-02-10 16:00:00 5.2 28 Noroeste 51 Noroeste 0 -- -- 68
2021-02-10 15:00:00 4.6 38 Noroeste 57 Noroeste 0 -- -- 70
2021-02-10 14:00:00 4.3 29 Noroeste 59 Noroeste 0 -- -- 75
2021-02-10 13:00:00 3.2 31 Noroeste 54 Noroeste 0 -- -- 77
2021-02-10 12:00:00 2.1 28 Noroeste 56 Noroeste 0 -- -- 86
2021-02-10 11:00:00 1.5 32 Noroeste 58 Noroeste 0 -- -- 89
2021-02-10 10:00:00 1.5 31 Noroeste 56 Oeste 0 -- -- 89
2021-02-10 09:00:00 1.5 28 Noroeste 52 Noroeste 0.8 -- -- 89
2021-02-10 08:00:00 1.1 15 Noroeste 37 Noroeste 3 -- -- 91
2021-02-10 07:00:00 0.5 6 Noroeste 38 Oeste 2.8 -- -- 93
2021-02-10 06:00:00 1.5 12 Sudoeste 43 Oeste 2 -- -- 91
2021-02-10 05:00:00 1.6 18 Oeste 35 Oeste 2 -- -- 90
2021-02-10 04:00:00 1.7 6 Sudoeste 35 Sudoeste 0.6 -- -- 90
2021-02-10 03:00:00 2 11 Sudoeste 37 Noroeste 0.6 -- -- 89
2021-02-10 02:00:00 2.4 29 Noroeste 59 Noroeste 0.2 -- -- 83
2021-02-10 01:00:00 2.4 8 Oeste 43 Oeste 0.4 -- -- 89
2021-02-10 00:00:00 2.5 15 Oeste 35 Oeste 1.2 -- -- 89
2021-02-09 23:00:00 2.8 15 Oeste 50 Oeste 0.2 -- -- 86
2021-02-09 22:00:00 3 21 Oeste 53 Oeste 1.2 -- -- 86
2021-02-09 21:00:00 2.9 14 Oeste 38 Sudoeste 0.6 -- -- 89
2021-02-09 20:00:00 2.5 10 Sudoeste 39 Noroeste 0.2 -- -- 90
2021-02-09 19:00:00 1.9 23 Noroeste 48 Noroeste 0.6 -- -- 91
2021-02-09 18:00:00 2.5 25 Noroeste 58 Oeste 2.6 -- -- 89
2021-02-09 17:00:00 4.4 15 Oeste 68 Oeste 3.2 -- -- 89
2021-02-09 16:00:00 4.3 20 Sudoeste 54 Sudoeste 2.4 -- -- 89
2021-02-09 15:00:00 4.2 16 Sudoeste 49 Oeste 1.4 -- -- 88
2021-02-09 14:00:00 4.1 23 Oeste 64 Oeste 0.4 -- -- 89
2021-02-09 13:00:00 4 19 Sudoeste 75 Oeste 0 -- -- 88
2021-02-09 12:00:00 3.4 23 Oeste 68 Sudoeste 0 -- -- 88
2021-02-09 11:00:00 2.6 18 Oeste 47 Oeste 0 -- -- 91
2021-02-09 10:00:00 2.4 10 Oeste 46 Oeste 0 -- -- 90
2021-02-09 09:00:00 2 14 Oeste 46 Noroeste 0 -- -- 91
2021-02-09 08:00:00 2.3 21 Oeste 50 Oeste 0 -- -- 87
2021-02-09 07:00:00 1.7 26 Noroeste 66 Noroeste 0 -- -- 84
2021-02-09 06:00:00 1.2 36 Oeste 62 Sudoeste 0 -- -- 85
2021-02-09 05:00:00 1.3 24 Oeste 60 Noroeste 0 -- -- 85
2021-02-09 04:00:00 1.2 27 Noroeste 72 Noroeste 0 -- -- 92
2021-02-09 03:00:00 1.4 42 Noroeste 68 Oeste 0 -- -- 91
2021-02-09 02:00:00 1.8 35 Noroeste 69 Oeste 0.2 -- -- 91
2021-02-09 01:00:00 2 45 Noroeste 71 Oeste 0 -- -- 88
2021-02-09 00:00:00 2 27 Noroeste 45 Oeste 0.2 -- -- 89
2021-02-08 23:00:00 1.7 20 Noroeste 36 Oeste 0.4 -- -- 89
2021-02-08 22:00:00 1.3 18 Noroeste 40 Oeste 0 -- -- 91
2021-02-08 21:00:00 1.2 12 Oeste 24 Oeste 2.4 -- -- 91
2021-02-08 20:00:00 0.8 9 Oeste 47 Oeste 1.2 -- -- 93
2021-02-08 19:00:00 2 21 Oeste 56 Oeste 0.4 -- -- 88
2021-02-08 18:00:00 1.7 29 Noroeste 58 Oeste 0.4 -- -- 89
2021-02-08 17:00:00 3.3 27 Noroeste 55 Oeste 0 -- -- 79
2021-02-08 16:00:00 3.3 30 Noroeste 63 Noroeste 0.2 -- -- 80
2021-02-08 15:00:00 3.5 19 Oeste 54 Noroeste 0 -- -- 82
2021-02-08 14:00:00 2.5 20 Oeste 54 Noroeste 0.4 -- -- 88
2021-02-08 13:00:00 3.2 23 Oeste 52 Noroeste 0 -- -- 86
2021-02-08 12:00:00 2.8 26 Oeste 47 Oeste 0 -- -- 83
2021-02-08 11:00:00 2.6 24 Oeste 47 Noroeste 0.4 -- -- 87
2021-02-08 10:00:00 2.5 18 Oeste 35 Oeste 0.2 -- -- 86
2021-02-08 09:00:00 1.5 16 Oeste 43 Sudoeste 0.8 -- -- 91
2021-02-08 08:00:00 1.5 19 Oeste 41 Oeste 2.8 -- -- 90
2021-02-08 07:00:00 2.2 15 Oeste 36 Sudoeste 1 -- -- 90
2021-02-08 06:00:00 1.7 8 Sudoeste 34 Oeste 0.2 -- -- 92
2021-02-08 05:00:00 1.7 10 Sudoeste 33 Sudoeste 0 -- -- 92
2021-02-08 04:00:00 1.4 7 Sur 39 Oeste 0.2 -- -- 91
2021-02-08 03:00:00 1 14 Oeste 43 Oeste 0 -- -- 90
2021-02-08 02:00:00 1 27 Oeste 58 Oeste 0 -- -- 88
2021-02-08 01:00:00 1.4 29 Oeste 62 Oeste 0 -- -- 86
2021-02-08 00:00:00 1.7 33 Oeste 60 Oeste 0 -- -- 83
2021-02-07 23:00:00 2 35 Oeste 59 Oeste 0 -- -- 81
2021-02-07 22:00:00 2 27 Oeste 68 Oeste 0 -- -- 82
2021-02-07 21:00:00 2.3 31 Oeste 59 Oeste 0 -- -- 80
2021-02-07 20:00:00 2.5 17 Noroeste 52 Oeste 0 -- -- 77
2021-02-07 19:00:00 2.2 8 Este 34 Norte 0 -- -- 75
2021-02-07 18:00:00 2.3 17 Noroeste 33 Noroeste 0 -- -- 71
2021-02-07 17:00:00 3.7 16 Noroeste 31 Noroeste 0 -- -- 64
2021-02-07 16:00:00 4.8 20 Noroeste 32 Oeste 0 -- -- 58
2021-02-07 15:00:00 4.7 21 Noroeste 33 Noroeste 0 -- -- 60
2021-02-07 14:00:00 4 19 Noroeste 33 Noroeste 0 -- -- 65
2021-02-07 13:00:00 3.7 19 Noroeste 34 Noroeste 0 -- -- 66
2021-02-07 12:00:00 2.3 21 Noroeste 36 Norte 0 -- -- 70
2021-02-07 11:00:00 1 20 Norte 38 Noroeste 0 -- -- 76
2021-02-07 10:00:00 0.5 21 Norte 34 Norte 0 -- -- 83
2021-02-07 09:00:00 -0.3 10 Norte 19 Noroeste 0 -- -- 93
2021-02-07 08:00:00 -0.7 13 Noroeste 17 Norte 0 -- -- 92
2021-02-07 07:00:00 -0.5 10 Noroeste 23 Noroeste 0 -- -- 91
2021-02-07 06:00:00 -0.2 15 Noroeste 21 Noroeste 0 -- -- 95
2021-02-07 05:00:00 0 14 Noroeste 19 Noroeste 0 -- -- 97
2021-02-07 04:00:00 -0.1 12 Noroeste 19 Noroeste 0 -- -- 96
2021-02-07 03:00:00 0 12 Noroeste 22 Noroeste 0 -- -- 96
2021-02-07 02:00:00 0.5 14 Noroeste 21 Norte 0 -- -- 97
2021-02-07 01:00:00 1.3 11 Norte 15 Norte 0 -- -- 97
2021-02-07 00:00:00 1.3 10 Norte 19 Norte 0 -- -- 96
2021-02-06 23:00:00 1.3 13 Norte 22 Noroeste 0 -- -- 96
2021-02-06 22:00:00 2.4 8 Norte 18 Noroeste 0 -- -- 92
2021-02-06 21:00:00 2.6 10 Noroeste 17 Noroeste 0 -- -- 89
2021-02-06 20:00:00 3.4 6 Noroeste 14 Noroeste 0 -- -- 90
2021-02-06 19:00:00 3.5 4 Noroeste 14 Oeste 0 -- -- 89
2021-02-06 18:00:00 3.7 8 Oeste 23 Sudoeste 0 -- -- 88
2021-02-06 17:00:00 4 12 Sudeste 35 Oeste 0 -- -- 87
2021-02-06 16:00:00 4 12 Oeste 35 Sudoeste 0.4 -- -- 89
2021-02-06 15:00:00 4.3 12 Sudoeste 24 Sudoeste 0.4 -- -- 87
2021-02-06 14:00:00 5 7 Sudoeste 32 Oeste 0 -- -- 85
2021-02-06 13:00:00 4.9 11 Sur 20 Sudoeste 1.4 -- -- 90
2021-02-06 12:00:00 4.4 4 Oeste 19 Sur 0.8 -- -- 88
2021-02-06 11:00:00 4.8 5 Sudoeste 17 Sudoeste 0 -- -- 82
2021-02-06 10:00:00 4.6 10 Oeste 23 Sudoeste 0 -- -- 81
2021-02-06 09:00:00 3.7 4 Sudoeste 19 Sur 0 -- -- 88
2021-02-06 08:00:00 3.8 8 Sur 39 Sudoeste 0.2 -- -- 88
2021-02-06 07:00:00 3.7 13 Sudoeste 35 Sudoeste 0 -- -- 91
2021-02-06 06:00:00 3.7 12 Sur 24 Sudoeste 0 -- -- 89
2021-02-06 05:00:00 3.2 6 Sur 13 Sur 0 -- -- 91
2021-02-06 04:00:00 3 4 Sudeste 14 Sudeste 1.2 -- -- 92
2021-02-06 03:00:00 3.8 3 Sudoeste 41 Sur 3 -- -- 86
2021-02-06 02:00:00 5.2 20 Noroeste 37 Oeste 0 -- -- 84
2021-02-06 01:00:00 5.1 13 Sudoeste 35 Oeste 0 -- -- 86
2021-02-06 00:00:00 5.8 12 Sudoeste 39 Sudoeste 0 -- -- 83
2021-02-05 23:00:00 6 13 Sur 29 Sur 0 -- -- 72
2021-02-05 22:00:00 5.7 10 Sur 27 Sur 0 -- -- 76
2021-02-05 21:00:00 6.3 15 Sur 31 Sur 0 -- -- 71
2021-02-05 20:00:00 6.8 16 Sur 30 Sur 0 -- -- 69
2021-02-05 19:00:00 7.1 14 Sur 26 Sur 0 -- -- 67
2021-02-05 18:00:00 6.8 17 Sur 30 Sur 0 -- -- 71
2021-02-05 17:00:00 7.8 13 Sur 26 Sudeste 0 -- -- 76
2021-02-05 16:00:00 9.4 16 Sudeste 25 Sudeste 0 -- -- 69
2021-02-05 15:00:00 9.7 14 Sur 30 Sudeste 0 -- -- 68
2021-02-05 14:00:00 8.9 18 Sudeste 28 Sudeste 0 -- -- 72
2021-02-05 13:00:00 8.7 16 Sudeste 33 Sudeste 0 -- -- 71
2021-02-05 12:00:00 8.2 23 Sur 40 Sur 0 -- -- 70
2021-02-05 11:00:00 8.6 23 Sur 42 Sudeste 0 -- -- 65
2021-02-05 10:00:00 8.1 19 Sudeste 35 Sudeste 0 -- -- 65
2021-02-05 09:00:00 7.1 12 Sur 26 Sur 0 -- -- 65
2021-02-05 08:00:00 7 15 Sur 25 Sur 0 -- -- 62
2021-02-05 07:00:00 7.8 13 Sudeste 24 Sur 0 -- -- 57
2021-02-05 06:00:00 9 16 Sur 26 Sur 0 -- -- 53
2021-02-05 05:00:00 9.1 16 Sur 26 Sur 0 -- -- 54
2021-02-05 04:00:00 9 15 Sur 22 Sur 0 -- -- 58
2021-02-05 03:00:00 7.6 10 Sur 14 Sur 0 -- -- 65
2021-02-05 02:00:00 7.2 5 Sur 13 Sudoeste 0 -- -- 69
2021-02-05 01:00:00 8.5 10 Sudoeste 24 Sudoeste 0 -- -- 62
2021-02-05 00:00:00 9.4 9 Sur 24 Sudoeste 0 -- -- 57
2021-02-04 23:00:00 9.7 6 Sudoeste 21 Sudoeste 0 -- -- 57
2021-02-04 22:00:00 7.9 10 Sur 21 Sudoeste 0 -- -- 73
2021-02-04 21:00:00 9.5 13 Sudoeste 27 Sudoeste 0 -- -- 63
2021-02-04 20:00:00 7.6 8 Sur 17 Sur 0 -- -- 77
2021-02-04 19:00:00 6.9 7 Sudeste 13 Sudeste 0 -- -- 84
2021-02-04 18:00:00 8.4 6 Sur 23 Sudeste 0 -- -- 78
2021-02-04 17:00:00 9.6 13 Sudeste 24 Sudeste 0 -- -- 74
2021-02-04 16:00:00 10.2 14 Sudeste 32 Sudeste 0 -- -- 71
2021-02-04 15:00:00 10.1 21 Sudeste 38 Sudeste 0 -- -- 66
2021-02-04 14:00:00 10.7 26 Sudeste 37 Sudeste 0 -- -- 62
2021-02-04 13:00:00 11.2 19 Sudeste 31 Sur 0 -- -- 62
2021-02-04 12:00:00 10.1 19 Sudeste 33 Sudeste 0 -- -- 62
2021-02-04 11:00:00 8.3 10 Sudeste 25 Sur 0 -- -- 72
2021-02-04 10:00:00 7.6 12 Sudeste 19 Sudeste 0 -- -- 76
2021-02-04 09:00:00 6.1 9 Sur 17 Sur 0 -- -- 86
2021-02-04 08:00:00 5 10 Sur 13 Sur 0 -- -- 89
2021-02-04 07:00:00 5.2 3 Sur 21 Sudoeste 0 -- -- 86
2021-02-04 06:00:00 5.9 17 Oeste 23 Sudoeste 0 -- -- 87
2021-02-04 05:00:00 6.5 8 Sudoeste 13 Sudoeste 0 -- -- 80
2021-02-04 04:00:00 6 6 Oeste 13 Sudoeste 0 -- -- 83
2021-02-04 03:00:00 6.5 3 Oeste 17 Oeste 0 -- -- 81
2021-02-04 02:00:00 6.6 4 Oeste 17 Sudoeste 0 -- -- 81
2021-02-04 01:00:00 6.9 7 Oeste 26 Sudoeste 0 -- -- 80
2021-02-04 00:00:00 7.1 8 Oeste 25 Oeste 0 -- -- 79
2021-02-03 23:00:00 6 4 Nordeste 12 Noroeste 0 -- -- 84
2021-02-03 22:00:00 6.6 4 Norte 20 Oeste 0 -- -- 80
2021-02-03 21:00:00 6.8 4 Oeste 25 Sudoeste 0 -- -- 79
2021-02-03 20:00:00 6.3 3 Noroeste 17 Norte 0 -- -- 80
2021-02-03 19:00:00 7 9 Noroeste 26 Noroeste 0 -- -- 78
2021-02-03 18:00:00 8.2 12 Noroeste 27 Noroeste 0 -- -- 73
2021-02-03 17:00:00 10.5 11 Noroeste 30 Oeste 0 -- -- 68
2021-02-03 16:00:00 11.8 13 Noroeste 26 Noroeste 0 -- -- 60
2021-02-03 15:00:00 12.4 7 Oeste 29 Noroeste 0 -- -- 60
2021-02-03 14:00:00 11.3 18 Noroeste 29 Noroeste 0 -- -- 63
2021-02-03 13:00:00 10.6 9 Oeste 27 Oeste 0 -- -- 65
2021-02-03 12:00:00 8.2 14 Oeste 32 Oeste 0 -- -- 74
2021-02-03 11:00:00 7.6 13 Oeste 30 Oeste 0 -- -- 77
2021-02-03 10:00:00 6.3 16 Oeste 39 Oeste 0 -- -- 82
2021-02-03 09:00:00 5.3 14 Oeste 29 Sudoeste 0 -- -- 83
2021-02-03 08:00:00 5.3 21 Oeste 37 Oeste 0 -- -- 80
2021-02-03 07:00:00 6.8 17 Oeste 45 Noroeste 0 -- -- 54
2021-02-03 06:00:00 6.9 19 Noroeste 45 Noroeste 0 -- -- 50
2021-02-03 05:00:00 7.1 18 Oeste 48 Noroeste 0 -- -- 51
2021-02-03 04:00:00 5.9 21 Oeste 46 Oeste 0 -- -- 63
2021-02-03 03:00:00 5.5 28 Oeste 50 Oeste 0 -- -- 69
2021-02-03 02:00:00 5.5 24 Oeste 42 Sudoeste 0 -- -- 70
2021-02-03 01:00:00 5.9 25 Oeste 40 Noroeste 0 -- -- 69
2021-02-03 00:00:00 6 20 Oeste 41 Oeste 0 -- -- 68
2021-02-02 23:00:00 7.1 23 Oeste 43 Oeste 0 -- -- 61
2021-02-02 22:00:00 8.6 23 Oeste 36 Oeste 0 -- -- 52
2021-02-02 21:00:00 8.3 26 Oeste 40 Oeste 0 -- -- 54
2021-02-02 20:00:00 8.4 17 Oeste 29 Sudoeste 0 -- -- 56
2021-02-02 19:00:00 8.2 5 Norte 22 Noroeste 0 -- -- 61
2021-02-02 18:00:00 9.3 5 Sur 35 Oeste 0 -- -- 59
2021-02-02 17:00:00 11.5 14 Noroeste 27 Oeste 0 -- -- 51
2021-02-02 16:00:00 12.8 12 Norte 19 Noroeste 0 -- -- 56
2021-02-02 15:00:00 13 10 Noroeste 28 Noroeste 0 -- -- 52
2021-02-02 14:00:00 11.9 13 Noroeste 22 Noroeste 0 -- -- 55
2021-02-02 13:00:00 11.8 8 Norte 16 Este 0 -- -- 54
2021-02-02 12:00:00 10.1 6 Sudeste 32 Noroeste 0 -- -- 67
2021-02-02 11:00:00 6.9 17 Noroeste 29 Noroeste 0 -- -- 81
2021-02-02 10:00:00 7.1 6 Norte 29 Oeste 0 -- -- 77
2021-02-02 09:00:00 5.8 13 Norte 27 Noroeste 0 -- -- 85
2021-02-02 08:00:00 5.9 12 Oeste 20 Noroeste 0 -- -- 85
2021-02-02 07:00:00 5.5 4 Oeste 7 Oeste 0 -- -- 85
2021-02-02 06:00:00 5.7 4 Norte 14 Noroeste 0 -- -- 86
2021-02-02 05:00:00 5.3 2 Oeste 34 Noroeste 0 -- -- 85
2021-02-02 04:00:00 6.3 17 Noroeste 34 Noroeste 0 -- -- 80
2021-02-02 03:00:00 6.2 8 Norte 43 Noroeste 0 -- -- 80
2021-02-02 02:00:00 6.9 26 Noroeste 41 Noroeste 0 -- -- 75
2021-02-02 01:00:00 7.2 27 Noroeste 59 Noroeste 0 -- -- 74
2021-02-02 00:00:00 7.6 40 Noroeste 65 Noroeste 0 -- -- 72
2021-02-01 23:00:00 7.1 44 Noroeste 64 Oeste 0 -- -- 75
2021-02-01 22:00:00 7 44 Noroeste 60 Noroeste 0 -- -- 75
2021-02-01 21:00:00 6.8 33 Noroeste 54 Noroeste 0 -- -- 77
2021-02-01 20:00:00 7.2 37 Noroeste 58 Oeste 0 -- -- 76
2021-02-01 19:00:00 7.6 35 Noroeste 53 Noroeste 0 -- -- 75
2021-02-01 18:00:00 8.2 31 Noroeste 48 Noroeste 0 -- -- 70
2021-02-01 17:00:00 8.7 30 Noroeste 51 Noroeste 0 -- -- 70
2021-02-01 16:00:00 8.6 36 Noroeste 56 Noroeste 0 -- -- 71
2021-02-01 15:00:00 8.8 31 Noroeste 61 Oeste 0 -- -- 71
2021-02-01 14:00:00 8.9 41 Noroeste 66 Noroeste 0 -- -- 67
2021-02-01 13:00:00 8.5 42 Noroeste 68 Oeste 0 -- -- 65
2021-02-01 12:00:00 7.7 39 Noroeste 63 Noroeste 0 -- -- 67
2021-02-01 11:00:00 7 38 Noroeste 60 Noroeste 0 -- -- 67
2021-02-01 10:00:00 6 34 Noroeste 74 Noroeste 0 -- -- 68
2021-02-01 09:00:00 5.2 44 Noroeste 79 Noroeste 0 -- -- 68
2021-02-01 08:00:00 4.6 45 Noroeste 75 Noroeste 0 -- -- 71
2021-02-01 07:00:00 4.6 37 Noroeste 64 Noroeste 0 -- -- 73
2021-02-01 06:00:00 4.7 35 Noroeste 62 Noroeste 0 -- -- 73
2021-02-01 05:00:00 5.1 27 Noroeste 68 Noroeste 0 -- -- 73
2021-02-01 04:00:00 5.8 48 Noroeste 83 Noroeste 0 -- -- 71
2021-02-01 03:00:00 6.1 50 Noroeste 87 Noroeste 0 -- -- 70
2021-02-01 02:00:00 6.6 53 Noroeste 94 Oeste 0 -- -- 70
2021-02-01 01:00:00 7 39 Noroeste 72 Noroeste 0 -- -- 71
2021-02-01 00:00:00 7.1 45 Noroeste 73 Noroeste 0 -- -- 72
2021-01-31 23:00:00 7 50 Noroeste 84 Oeste 0 -- -- 75
2021-01-31 22:00:00 7.6 47 Noroeste 83 Noroeste 0 -- -- 77
2021-01-31 21:00:00 7.4 33 Noroeste 70 Noroeste 0 -- -- 79
2021-01-31 20:00:00 7.3 26 Noroeste 47 Noroeste 0 -- -- 80
2021-01-31 19:00:00 7.1 26 Noroeste 49 Oeste 0 -- -- 80
2021-01-31 18:00:00 7.2 34 Noroeste 61 Oeste 0 -- -- 82
2021-01-31 17:00:00 6.9 25 Noroeste 59 Noroeste 0 -- -- 83
2021-01-31 16:00:00 7.3 32 Noroeste 54 Oeste 0 -- -- 80
2021-01-31 15:00:00 7.8 36 Noroeste 64 Oeste 0 -- -- 75
2021-01-31 14:00:00 7.2 33 Noroeste 62 Noroeste 0 -- -- 79
2021-01-31 13:00:00 7 40 Noroeste 63 Oeste 0 -- -- 76
2021-01-31 12:00:00 5.3 45 Noroeste 60 Noroeste 0 -- -- 77
2021-01-31 11:00:00 3.6 35 Noroeste 62 Noroeste 0 -- -- 79
2021-01-31 10:00:00 3.8 43 Noroeste 62 Noroeste 0 -- -- 76
2021-01-31 09:00:00 2 35 Noroeste 60 Noroeste 0 -- -- 85
2021-01-31 08:00:00 2.2 48 Noroeste 72 Noroeste 0 -- -- 82
2021-01-31 07:00:00 2.1 42 Noroeste 67 Noroeste 0 -- -- 83
2021-01-31 06:00:00 2 33 Noroeste 49 Noroeste 0 -- -- 86
2021-01-31 05:00:00 1.5 33 Noroeste 51 Noroeste 0 -- -- 89
2021-01-31 04:00:00 1.6 24 Noroeste 42 Noroeste 0 -- -- 89
2021-01-31 03:00:00 1.7 20 Noroeste 48 Noroeste 0 -- -- 87
2021-01-31 02:00:00 1.6 27 Noroeste 57 Noroeste 0 -- -- 87
2021-01-31 01:00:00 2.1 32 Noroeste 64 Noroeste 0 -- -- 79
2021-01-31 00:00:00 1.8 36 Noroeste 74 Noroeste 0 -- -- 82
2021-01-30 23:00:00 1.6 36 Noroeste 66 Noroeste 0 -- -- 87
2021-01-30 22:00:00 1.9 37 Noroeste 59 Oeste 0.2 -- -- 86
2021-01-30 21:00:00 2.3 33 Noroeste 57 Noroeste 0.2 -- -- 86
2021-01-30 20:00:00 3.2 29 Noroeste 53 Oeste 0 -- -- 71
2021-01-30 19:00:00 3.6 26 Noroeste 55 Oeste 0 -- -- 66
2021-01-30 18:00:00 4.7 39 Noroeste 87 Noroeste 0 -- -- 60
2021-01-30 17:00:00 5.4 29 Noroeste 63 Noroeste 0 -- -- 60
2021-01-30 16:00:00 6.1 36 Noroeste 68 Oeste 0 -- -- 58
2021-01-30 15:00:00 6.4 35 Noroeste 69 Noroeste 0 -- -- 64
2021-01-30 14:00:00 6 40 Noroeste 74 Oeste 0 -- -- 66
2021-01-30 13:00:00 5 39 Noroeste 73 Oeste 0 -- -- 75
2021-01-30 12:00:00 4.9 35 Noroeste 58 Noroeste 0.6 -- -- 83
2021-01-30 11:00:00 5.3 13 Oeste 43 Oeste 0.8 -- -- 86
2021-01-30 10:00:00 5.8 15 Oeste 39 Oeste 0.4 -- -- 84
2021-01-30 09:00:00 5 18 Sudoeste 58 Noroeste 1.2 -- -- 84
2021-01-30 08:00:00 5.8 13 Oeste 58 Oeste 0 -- -- 86
2021-01-30 07:00:00 6.5 24 Oeste 54 Noroeste 0 -- -- 82
2021-01-30 06:00:00 7.2 23 Oeste 53 Oeste 0 -- -- 82
2021-01-30 05:00:00 7.4 16 Oeste 39 Oeste 0 -- -- 85
2021-01-30 04:00:00 7.4 12 Sudoeste 37 Oeste 0 -- -- 85
2021-01-30 03:00:00 7.6 26 Oeste 57 Oeste 0 -- -- 82
2021-01-30 02:00:00 7.9 38 Oeste 64 Oeste 0 -- -- 80
2021-01-30 01:00:00 8.1 35 Oeste 58 Oeste 0 -- -- 78
2021-01-30 00:00:00 7.9 27 Oeste 60 Oeste 0 -- -- 79